Time;durP1;ratioP1;P1;durP2;ratioP2;P2;SDS_P1;SDS_P2;PMS_P1;PMS_P2;Temp;Humidity;BMP_temperature;BMP_pressure;BME280_temperature;BME280_humidity;BME280_pressure;Samples;Min_cycle;Max_cycle;Signal;HPM_P1;HPM_P2
2021/04/05 00:01:32;;;;;;;13.38;5.78;;;1.70;82.30;;;;;;4902827;29;20115;-62
2021/04/05 00:04:04;;;;;;;13.57;5.22;;;1.70;82.60;;;;;;4906659;29;20135;-63
2021/04/05 00:06:33;;;;;;;15.85;5.57;;;1.70;82.70;;;;;;4907504;29;20355;-63
2021/04/05 00:09:07;;;;;;;18.02;5.80;;;1.60;82.80;;;;;;4907140;29;20060;-62
2021/04/05 00:11:35;;;;;;;14.82;5.68;;;1.60;83.40;;;;;;4907025;29;20056;-63
2021/04/05 00:14:03;;;;;;;19.58;6.93;;;1.60;83.60;;;;;;4906882;29;20277;-62
2021/04/05 00:16:32;;;;;;;17.85;5.90;;;1.50;83.50;;;;;;4906611;29;20052;-62
2021/04/05 00:19:00;;;;;;;20.35;7.05;;;1.60;83.70;;;;;;4906856;29;20123;-62
2021/04/05 00:21:30;;;;;;;16.33;6.43;;;1.60;83.70;;;;;;4907661;29;20121;-62
2021/04/05 00:23:57;;;;;;;18.20;7.55;;;1.60;83.70;;;;;;4906973;29;20116;-62
2021/04/05 00:26:24;;;;;;;17.55;7.60;;;1.60;83.60;;;;;;4904002;29;20522;-62
2021/04/05 00:28:52;;;;;;;17.15;6.85;;;1.60;83.60;;;;;;4905993;29;20053;-63
2021/04/05 00:31:20;;;;;;;21.98;7.45;;;1.60;83.30;;;;;;4905140;29;20147;-62
2021/04/05 00:33:47;;;;;;;19.15;7.47;;;1.70;83.40;;;;;;4904818;29;20347;-62
2021/04/05 00:36:16;;;;;;;20.17;7.45;;;1.70;83.30;;;;;;4904683;29;20060;-63
2021/04/05 00:38:44;;;;;;;14.77;5.90;;;1.70;83.30;;;;;;4904197;29;20052;-63
2021/04/05 00:41:14;;;;;;;15.52;7.25;;;1.60;83.30;;;;;;4903942;29;20608;-63
2021/04/05 00:43:46;;;;;;;16.20;6.43;;;1.70;83.50;;;;;;4904578;29;20276;-62
2021/04/05 00:46:19;;;;;;;19.30;6.65;;;1.60;83.70;;;;;;4904564;29;20052;-62
2021/04/05 00:48:48;;;;;;;20.27;6.28;;;1.70;83.80;;;;;;4906372;29;20052;-62
2021/04/05 00:51:22;;;;;;;15.95;8.00;;;1.70;83.80;;;;;;4903661;29;20056;-62
2021/04/05 00:53:51;;;;;;;17.85;7.15;;;1.80;83.80;;;;;;4904646;29;20056;-62
2021/04/05 00:56:21;;;;;;;20.83;7.20;;;1.80;83.60;;;;;;4905142;29;20456;-61
2021/04/05 00:58:49;;;;;;;19.75;7.25;;;1.70;83.60;;;;;;4904107;29;20049;-61
2021/04/05 01:01:21;;;;;;;15.18;6.95;;;1.70;83.50;;;;;;4900639;29;20267;-62
2021/04/05 01:03:50;;;;;;;17.45;6.78;;;1.80;83.30;;;;;;4904781;29;20155;-62
2021/04/05 01:06:22;;;;;;;16.98;8.07;;;1.70;83.40;;;;;;4897946;29;20055;-61
2021/04/05 01:08:50;;;;;;;22.48;8.13;;;1.60;83.80;;;;;;4903939;29;20051;-61
2021/04/05 01:11:19;;;;;;;16.23;6.70;;;1.70;83.90;;;;;;4904784;29;20052;-63
2021/04/05 01:13:49;;;;;;;11.95;5.15;;;1.70;84.20;;;;;;4905542;29;20052;-62
2021/04/05 01:16:18;;;;;;;22.38;7.75;;;1.70;84.20;;;;;;4905493;29;20048;-62
2021/04/05 01:18:45;;;;;;;18.30;6.88;;;1.70;84.30;;;;;;4905934;29;20060;-64
2021/04/05 01:21:13;;;;;;;20.20;6.88;;;1.70;84.30;;;;;;4832026;29;20095;-61
2021/04/05 01:23:42;;;;;;;21.50;7.93;;;1.70;84.30;;;;;;335694;29;10021910;-63
2021/04/05 01:26:11;;;;;;;16.90;6.75;;;1.70;84.30;;;;;;4900202;29;20112;-63
2021/04/05 01:28:39;;;;;;;17.38;8.43;;;1.70;84.30;;;;;;4906280;29;20060;-62
2021/04/05 01:31:08;;;;;;;18.42;6.65;;;1.70;84.20;;;;;;4919588;29;20112;-62
2021/04/05 01:33:37;;;;;;;28.40;8.88;;;1.70;84.30;;;;;;4906674;29;20064;-62
2021/04/05 01:36:09;;;;;;;17.83;7.07;;;1.70;84.30;;;;;;4906197;29;20044;-63
2021/04/05 01:38:38;;;;;;;22.60;8.77;;;1.70;84.40;;;;;;4905744;29;20099;-62
2021/04/05 01:41:10;;;;;;;18.90;7.35;;;1.70;84.70;;;;;;4905478;29;20049;-63
2021/04/05 01:43:38;;;;;;;15.80;6.10;;;1.60;84.60;;;;;;4906386;29;20269;-63
2021/04/05 01:46:08;;;;;;;20.13;8.85;;;1.60;84.70;;;;;;4905922;29;20041;-62
2021/04/05 01:48:36;;;;;;;18.80;7.22;;;1.60;84.70;;;;;;4906056;29;20408;-62
2021/04/05 01:51:08;;;;;;;33.67;8.20;;;1.50;84.50;;;;;;4905843;29;20248;-62
2021/04/05 01:53:39;;;;;;;33.88;7.88;;;1.40;84.80;;;;;;4923053;29;20115;-61
2021/04/05 01:56:09;;;;;;;29.25;8.20;;;1.40;84.90;;;;;;4909628;29;20048;-62
2021/04/05 01:58:37;;;;;;;19.07;6.43;;;1.40;84.90;;;;;;4908957;29;20056;-63
2021/04/05 02:01:11;;;;;;;16.45;6.15;;;1.40;85.30;;;;;;4907191;29;20055;-63
2021/04/05 02:03:42;;;;;;;19.75;7.00;;;1.30;85.50;;;;;;4910012;29;20052;-63
2021/04/05 02:06:13;;;;;;;18.77;7.43;;;1.30;85.60;;;;;;4909142;29;20051;-62
2021/04/05 02:08:43;;;;;;;18.30;7.10;;;1.40;85.60;;;;;;4909607;29;20060;-63
2021/04/05 02:11:14;;;;;;;17.38;6.93;;;1.30;85.70;;;;;;4909424;29;20071;-64
2021/04/05 02:13:44;;;;;;;18.13;7.13;;;1.30;85.80;;;;;;4908781;29;20061;-63
2021/04/05 02:16:14;;;;;;;17.42;7.13;;;1.30;85.90;;;;;;4907378;29;20082;-64
2021/04/05 02:18:42;;;;;;;17.85;7.35;;;1.30;86.10;;;;;;4907801;29;20060;-63
2021/04/05 02:21:12;;;;;;;20.10;8.38;;;1.30;86.10;;;;;;4907620;29;20072;-62
2021/04/05 02:23:40;;;;;;;29.85;9.48;;;1.30;86.10;;;;;;4907573;29;20415;-62
2021/04/05 02:26:10;;;;;;;15.82;7.57;;;1.30;85.90;;;;;;4906332;29;20040;-62
2021/04/05 02:28:43;;;;;;;22.02;8.07;;;1.20;86.20;;;;;;4908418;29;20116;-63
2021/04/05 02:31:12;;;;;;;18.77;8.70;;;1.20;86.40;;;;;;4907373;29;20239;-62
2021/04/05 02:33:41;;;;;;;18.65;8.05;;;1.20;86.30;;;;;;4906504;29;20060;-62
2021/04/05 02:36:10;;;;;;;22.02;7.80;;;1.20;86.30;;;;;;4906864;29;20045;-63
2021/04/05 02:38:39;;;;;;;15.32;6.15;;;1.20;86.00;;;;;;4907947;29;20052;-63
2021/04/05 02:41:08;;;;;;;21.48;8.38;;;1.30;85.90;;;;;;4904898;29;20060;-63
2021/04/05 02:43:37;;;;;;;21.08;8.80;;;1.40;85.80;;;;;;4906875;29;20049;-62
2021/04/05 02:46:07;;;;;;;16.45;7.15;;;1.40;85.70;;;;;;4906989;29;20061;-61
2021/04/05 02:48:38;;;;;;;21.17;9.07;;;1.40;85.80;;;;;;4907584;29;21001;-63
2021/04/05 02:51:06;;;;;;;;;;;1.50;85.70;;;;;;4907617;29;20497;-62
2021/04/05 02:53:37;;;;;;;15.52;6.28;;;1.50;85.50;;;;;;4907278;29;19919;-62
2021/04/05 02:56:12;;;;;;;14.15;6.88;;;1.60;85.30;;;;;;4905797;29;20111;-62
2021/04/05 02:58:42;;;;;;;16.55;6.68;;;1.60;84.90;;;;;;4907823;29;20060;-63
2021/04/05 03:01:14;;;;;;;15.77;7.72;;;1.60;85.10;;;;;;4902887;29;20100;-62
2021/04/05 03:03:43;;;;;;;18.27;7.32;;;1.70;84.70;;;;;;4906608;29;20348;-62
2021/04/05 03:06:20;;;;;;;17.88;7.57;;;1.60;84.90;;;;;;4907584;29;20041;-62
2021/04/05 03:08:48;;;;;;;19.10;7.80;;;1.50;85.00;;;;;;4908159;29;20116;-63
2021/04/05 03:11:17;;;;;;;21.58;6.80;;;1.50;85.20;;;;;;4908375;29;20120;-62
2021/04/05 03:13:45;;;;;;;20.23;7.50;;;1.50;85.50;;;;;;4908446;29;20063;-63
2021/04/05 03:16:18;;;;;;;16.13;7.60;;;1.60;85.00;;;;;;4908568;29;20060;-63
2021/04/05 03:18:47;;;;;;;19.08;7.22;;;1.70;84.90;;;;;;4908325;29;20055;-62
2021/04/05 03:21:16;;;;;;;17.75;8.32;;;1.60;85.00;;;;;;4909079;29;20052;-62
2021/04/05 03:23:44;;;;;;;17.05;7.13;;;1.70;84.70;;;;;;4908574;29;20055;-62
2021/04/05 03:26:13;;;;;;;16.33;6.75;;;1.80;84.50;;;;;;4907332;29;20278;-62
2021/04/05 03:28:41;;;;;;;20.85;8.45;;;1.60;84.50;;;;;;4908378;29;20339;-63
2021/04/05 03:31:12;;;;;;;17.38;6.32;;;1.70;84.70;;;;;;4908516;29;20048;-63
2021/04/05 03:33:46;;;;;;;23.88;7.10;;;1.70;84.50;;;;;;4908684;29;20056;-62
2021/04/05 03:36:19;;;;;;;26.90;7.60;;;1.70;84.20;;;;;;4906492;29;20277;-62
2021/04/05 03:38:47;;;;;;;20.10;9.13;;;1.70;84.80;;;;;;4908600;29;20064;-63
2021/04/05 03:41:24;;;;;;;21.55;8.43;;;1.70;84.50;;;;;;4909035;29;20060;-62
2021/04/05 03:44:01;;;;;;;22.98;7.85;;;1.60;84.80;;;;;;4908141;29;20327;-62
2021/04/05 03:46:33;;;;;;;21.85;8.25;;;1.50;85.00;;;;;;4907272;29;20491;-62
2021/04/05 03:49:16;;;;;;;22.48;9.00;;;1.60;85.10;;;;;;4907341;29;20183;-61
2021/04/05 03:51:47;;;;;;;19.92;8.10;;;1.50;85.30;;;;;;4890652;29;20067;-62
2021/04/05 03:54:19;;;;;;;22.70;8.18;;;1.50;85.30;;;;;;4907785;29;20048;-62
2021/04/05 03:56:52;;;;;;;18.55;7.45;;;1.60;85.30;;;;;;4907891;29;20104;-62
2021/04/05 03:59:25;;;;;;;14.98;6.65;;;1.60;85.50;;;;;;4906738;29;20052;-63
2021/04/05 04:01:58;;;;;;;25.00;7.30;;;1.60;85.50;;;;;;4904662;29;20236;-62
2021/04/05 04:04:33;;;;;;;18.67;8.18;;;1.70;85.50;;;;;;4904902;29;20833;-63
2021/04/05 04:07:12;;;;;;;27.00;8.93;;;1.70;85.60;;;;;;4905188;29;20063;-63
2021/04/05 04:09:40;;;;;;;26.90;7.82;;;1.70;85.40;;;;;;4906343;29;20332;-62
2021/04/05 04:12:12;;;;;;;18.73;8.40;;;1.70;85.30;;;;;;4904977;29;20370;-63
2021/04/05 04:14:42;;;;;;;21.00;6.50;;;1.80;85.30;;;;;;4906383;29;20056;-62
2021/04/05 04:17:11;;;;;;;21.48;8.45;;;1.80;85.20;;;;;;4905108;29;20055;-63
2021/04/05 04:19:39;;;;;;;22.95;8.18;;;1.80;85.10;;;;;;4906226;29;20127;-62
2021/04/05 04:22:08;;;;;;;20.85;9.00;;;1.90;85.10;;;;;;4905159;29;20059;-62
2021/04/05 04:24:36;;;;;;;19.10;8.80;;;1.90;85.20;;;;;;4905149;29;20347;-62
2021/04/05 04:27:08;;;;;;;26.08;8.68;;;1.90;85.10;;;;;;4904997;29;20477;-62
2021/04/05 04:29:36;;;;;;;19.70;8.15;;;1.90;85.20;;;;;;4905957;29;20080;-63
2021/04/05 04:32:04;;;;;;;20.02;8.57;;;1.90;85.30;;;;;;4905717;29;20052;-62
2021/04/05 04:34:32;;;;;;;18.85;8.38;;;2.00;85.10;;;;;;4904269;29;20068;-63
2021/04/05 04:37:10;;;;;;;26.08;7.35;;;2.00;85.10;;;;;;4905126;29;20051;-61
2021/04/05 04:39:44;;;;;;;29.60;8.77;;;2.00;85.10;;;;;;4906021;29;20079;-61
2021/04/05 04:42:14;;;;;;;22.30;7.43;;;2.00;85.00;;;;;;4905720;29;20044;-62
2021/04/05 04:44:42;;;;;;;20.95;8.38;;;2.00;85.00;;;;;;4903673;29;20071;-63
2021/04/05 04:47:10;;;;;;;25.85;8.45;;;2.00;85.00;;;;;;4905081;29;20275;-62
2021/04/05 04:49:37;;;;;;;17.60;8.95;;;2.10;84.90;;;;;;4905532;29;20095;-62
2021/04/05 04:52:07;;;;;;;24.50;8.80;;;2.10;84.80;;;;;;4905593;29;20056;-62
2021/04/05 04:54:35;;;;;;;22.73;7.90;;;2.10;84.90;;;;;;4905013;29;20053;-61
2021/04/05 04:57:07;;;;;;;17.75;8.75;;;2.20;84.90;;;;;;4904970;29;20063;-63
2021/04/05 04:59:35;;;;;;;17.73;7.75;;;2.20;84.80;;;;;;4920872;29;20094;-63
2021/04/05 05:02:03;;;;;;;17.15;7.68;;;2.20;84.70;;;;;;4895383;29;20052;-63
2021/04/05 05:04:31;;;;;;;25.00;8.68;;;2.30;84.70;;;;;;4913529;29;20355;-64
2021/04/05 05:07:01;;;;;;;21.48;9.25;;;2.50;84.30;;;;;;4906394;29;20064;-62
2021/04/05 05:09:31;;;;;;;20.15;9.05;;;2.70;83.80;;;;;;4906325;29;20056;-62
2021/04/05 05:11:58;;;;;;;23.08;8.32;;;2.80;83.50;;;;;;4904161;29;20092;-62
2021/04/05 05:14:26;;;;;;;26.73;9.27;;;2.80;83.10;;;;;;4907029;29;20088;-62
2021/04/05 05:16:54;;;;;;;18.90;8.23;;;2.90;83.00;;;;;;4906966;29;20064;-63
2021/04/05 05:19:24;;;;;;;25.48;9.70;;;3.00;82.60;;;;;;4906609;29;20055;-63
2021/04/05 05:21:54;;;;;;;24.95;8.50;;;3.10;82.50;;;;;;4906983;29;20142;-62
2021/04/05 05:24:23;;;;;;;23.23;9.50;;;3.20;82.30;;;;;;4906282;29;20062;-62
2021/04/05 05:26:55;;;;;;;23.75;10.80;;;3.30;81.90;;;;;;4905435;29;20048;-62
2021/04/05 05:29:25;;;;;;;19.13;7.70;;;3.50;81.60;;;;;;4906438;29;20064;-62
2021/04/05 05:31:53;;;;;;;20.08;8.55;;;3.60;81.40;;;;;;4906124;29;20289;-62
2021/04/05 05:34:21;;;;;;;20.85;7.80;;;3.70;81.10;;;;;;4906583;29;20048;-62
2021/04/05 05:36:49;;;;;;;17.58;8.35;;;3.70;80.90;;;;;;4907298;29;20125;-62
2021/04/05 05:39:19;;;;;;;26.35;8.75;;;3.80;80.60;;;;;;4905517;29;20052;-62
2021/04/05 05:42:00;;;;;;;34.15;11.38;;;3.90;80.50;;;;;;4907585;29;20232;-62
2021/04/05 05:44:41;;;;;;;23.20;9.20;;;4.00;80.30;;;;;;4906124;29;20196;-62
2021/04/05 05:47:15;;;;;;;21.67;7.45;;;4.00;80.00;;;;;;4915714;29;20241;-63
2021/04/05 05:49:49;;;;;;;18.90;7.43;;;4.20;79.80;;;;;;4907175;29;20057;-62
2021/04/05 05:52:30;;;;;;;17.75;6.82;;;4.20;79.70;;;;;;4906288;29;20296;-63
2021/04/05 05:55:21;;;;;;;20.65;7.78;;;4.40;79.50;;;;;;4905718;29;20337;-62
2021/04/05 05:58:02;;;;;;;17.67;6.55;;;4.40;79.30;;;;;;4906527;29;20366;-62
2021/04/05 06:00:35;;;;;;;17.33;7.38;;;4.60;79.50;;;;;;4889771;29;20052;-62
2021/04/05 06:03:23;;;;;;;19.05;5.63;;;4.70;79.40;;;;;;4904155;29;20281;-62
2021/04/05 06:06:03;;;;;;;17.05;7.05;;;4.90;78.90;;;;;;4904300;29;20053;-62
2021/04/05 06:08:42;;;;;;;17.55;5.05;;;5.10;78.60;;;;;;4903479;29;20335;-62
2021/04/05 06:11:22;;;;;;;19.05;7.20;;;5.30;77.90;;;;;;4905283;29;20301;-63
2021/04/05 06:13:59;;;;;;;15.93;5.88;;;5.40;77.60;;;;;;4905717;29;20072;-62
2021/04/05 06:16:45;;;;;;;14.02;6.20;;;5.50;77.60;;;;;;4904986;29;21212;-62
2021/04/05 06:19:23;;;;;;;21.67;6.45;;;5.60;76.80;;;;;;4904503;29;20048;-62
2021/04/05 06:21:59;;;;;;;12.48;5.00;;;5.70;76.40;;;;;;4904338;29;20060;-62
2021/04/05 06:24:41;;;;;;;14.50;5.75;;;5.80;76.00;;;;;;4903940;29;20263;-62
2021/04/05 06:27:14;;;;;;;14.55;5.57;;;5.80;76.20;;;;;;4903331;29;20367;-62
2021/04/05 06:30:04;;;;;;;16.33;5.93;;;6.00;76.00;;;;;;4905387;29;20045;-62
2021/04/05 06:32:38;;;;;;;15.63;4.88;;;6.10;75.50;;;;;;4904073;29;20700;-61
2021/04/05 06:35:37;;;;;;;12.32;4.93;;;6.10;75.20;;;;;;4904955;29;20060;-62
2021/04/05 06:38:11;;;;;;;11.10;5.75;;;6.20;75.10;;;;;;4903597;29;20052;-62
2021/04/05 06:40:41;;;;;;;16.88;4.53;;;6.40;75.10;;;;;;4906113;29;20070;-63
2021/04/05 06:43:39;;;;;;;9.48;4.57;;;6.40;74.60;;;;;;4907507;29;20052;-64
2021/04/05 06:46:27;;;;;;;14.50;5.47;;;6.40;74.40;;;;;;4908425;29;20100;-62
2021/04/05 06:49:18;;;;;;;11.95;4.75;;;6.50;74.40;;;;;;4908305;29;20112;-63
2021/04/05 06:52:10;;;;;;;20.80;5.53;;;6.50;74.30;;;;;;4906799;29;20357;-62
2021/04/05 06:55:04;;;;;;;10.18;4.45;;;6.50;73.70;;;;;;4908945;29;20610;-62
2021/04/05 06:57:45;;;;;;;10.20;4.15;;;6.50;73.90;;;;;;4907655;29;20645;-62
2021/04/05 07:00:24;;;;;;;11.18;5.03;;;6.50;73.60;;;;;;4906069;29;20063;-62
2021/04/05 07:03:28;;;;;;;13.52;4.57;;;6.50;73.60;;;;;;4909144;29;20059;-61
2021/04/05 07:06:18;;;;;;;14.68;4.47;;;6.50;73.80;;;;;;4890624;29;20404;-62
2021/04/05 07:08:59;;;;;;;15.73;4.75;;;6.50;73.50;;;;;;4890262;29;20728;-62
2021/04/05 07:11:33;;;;;;;12.90;5.50;;;6.60;73.40;;;;;;4890117;29;20709;-62
2021/04/05 07:14:10;;;;;;;12.85;5.10;;;6.60;73.80;;;;;;4905858;29;20093;-62
2021/04/05 07:16:50;;;;;;;11.40;4.80;;;6.60;73.50;;;;;;4905305;29;20053;-63
2021/04/05 07:19:34;;;;;;;9.48;4.95;;;6.60;73.00;;;;;;4891323;29;20228;-63
2021/04/05 07:22:14;;;;;;;14.52;4.57;;;6.60;73.00;;;;;;4891012;29;20065;-62
2021/04/05 07:24:49;;;;;;;11.18;4.40;;;6.70;72.70;;;;;;4890577;29;20072;-63
2021/04/05 07:27:20;;;;;;;12.25;5.50;;;6.80;72.40;;;;;;4890035;29;20068;-63
2021/04/05 07:30:07;;;;;;;13.25;4.53;;;6.70;71.70;;;;;;4905069;29;20387;-62
2021/04/05 07:32:41;;;;;;;11.93;4.88;;;6.70;71.80;;;;;;4890426;29;20128;-62
2021/04/05 07:35:18;;;;;;;14.23;4.50;;;6.60;72.20;;;;;;4889416;29;20049;-62
2021/04/05 07:38:03;;;;;;;12.63;4.45;;;6.70;72.30;;;;;;4889205;29;20045;-62
2021/04/05 07:40:48;;;;;;;12.07;4.90;;;6.60;72.20;;;;;;4891072;29;20294;-62
2021/04/05 07:43:28;;;;;;;11.10;4.40;;;6.60;72.50;;;;;;4890419;29;20229;-61
2021/04/05 07:46:07;;;;;;;12.98;5.00;;;6.70;72.50;;;;;;4889369;29;20067;-62
2021/04/05 07:48:40;;;;;;;10.00;4.65;;;6.60;72.40;;;;;;4890738;29;20427;-61
2021/04/05 07:51:16;;;;;;;9.20;4.40;;;6.70;72.30;;;;;;4890621;29;20068;-63
2021/04/05 07:53:50;;;;;;;15.70;5.35;;;6.70;71.70;;;;;;4890190;29;20052;-62
2021/04/05 07:56:22;;;;;;;16.25;5.38;;;6.80;71.60;;;;;;4889978;29;20079;-62
2021/04/05 07:59:05;;;;;;;17.35;6.25;;;6.90;71.50;;;;;;4889781;29;20140;-62
2021/04/05 08:01:43;;;;;;;11.18;4.38;;;6.80;71.70;;;;;;4885568;29;20413;-62
2021/04/05 08:04:19;;;;;;;10.20;4.68;;;6.90;71.60;;;;;;4894709;29;20065;-62
2021/04/05 08:06:58;;;;;;;15.20;6.68;;;7.00;71.20;;;;;;4908087;29;20228;-62
2021/04/05 08:09:29;;;;;;;14.02;6.75;;;7.00;71.00;;;;;;4908332;29;20384;-62
2021/04/05 08:12:14;;;;;;;13.88;5.70;;;7.00;70.70;;;;;;4908790;29;20100;-62
2021/04/05 08:14:51;;;;;;;20.67;6.85;;;7.00;71.00;;;;;;4907274;29;20493;-62
2021/04/05 08:17:31;;;;;;;14.52;5.78;;;7.00;71.40;;;;;;4908136;29;20119;-63
2021/04/05 08:20:05;;;;;;;12.80;5.70;;;7.00;70.90;;;;;;4909632;29;20402;-62
2021/04/05 08:22:43;;;;;;;13.18;5.20;;;7.00;71.30;;;;;;4907999;29;20044;-62
2021/04/05 08:25:24;;;;;;;12.43;5.13;;;7.00;70.90;;;;;;4906365;29;20096;-61
2021/04/05 08:27:58;;;;;;;18.90;5.97;;;7.00;71.00;;;;;;4906453;29;20077;-62
2021/04/05 08:30:34;;;;;;;14.70;5.43;;;7.10;71.00;;;;;;4906730;29;20626;-62
2021/04/05 08:33:12;;;;;;;18.70;6.32;;;7.10;70.90;;;;;;4905628;29;20048;-62
2021/04/05 08:35:44;;;;;;;13.98;5.40;;;7.20;70.80;;;;;;4907670;29;20315;-62
2021/04/05 08:38:23;;;;;;;13.73;5.07;;;7.20;70.50;;;;;;4907052;29;20061;-62
2021/04/05 08:41:02;;;;;;;17.55;7.25;;;7.20;70.70;;;;;;4908741;29;20087;-62
2021/04/05 08:43:37;;;;;;;;;;;7.10;70.90;;;;;;4908847;29;20537;-62
2021/04/05 08:46:12;;;;;;;12.60;5.30;;;7.20;71.40;;;;;;4907862;29;19919;-62
2021/04/05 08:48:42;;;;;;;17.45;5.97;;;7.10;71.60;;;;;;4908519;29;20048;-62
2021/04/05 08:51:12;;;;;;;14.95;5.97;;;7.10;71.90;;;;;;4908382;29;20068;-61
2021/04/05 08:53:47;;;;;;;14.33;6.57;;;7.10;71.90;;;;;;4909217;29;20360;-62
2021/04/05 08:56:17;;;;;;;15.50;6.57;;;7.10;72.00;;;;;;4908402;29;20052;-62
2021/04/05 08:58:50;;;;;;;17.35;6.72;;;7.10;72.30;;;;;;4907647;29;20112;-62
2021/04/05 09:01:23;;;;;;;14.63;6.13;;;7.10;72.10;;;;;;4897824;29;20127;-62
2021/04/05 09:03:50;;;;;;;16.90;6.63;;;7.10;72.10;;;;;;4906244;29;20067;-62
2021/04/05 09:06:28;;;;;;;21.90;7.93;;;7.10;71.80;;;;;;4909034;29;20075;-62
2021/04/05 09:08:59;;;;;;;16.77;8.10;;;7.10;72.10;;;;;;4908253;29;20064;-62
2021/04/05 09:11:26;;;;;;;;;;;7.10;71.90;;;;;;4907748;29;20737;-62
2021/04/05 09:13:55;;;;;;;13.02;6.47;;;7.10;71.80;;;;;;4907865;29;19920;-62
2021/04/05 09:16:54;;;;;;;18.42;6.72;;;7.10;72.00;;;;;;4904857;29;20119;-62
2021/04/05 09:19:58;;;;;;;10.85;5.50;;;7.10;72.20;;;;;;4908167;29;20083;-62
2021/04/05 09:23:02;;;;;;;14.85;5.78;;;7.20;71.70;;;;;;4907843;29;20068;-62
2021/04/05 09:25:55;;;;;;;17.75;7.18;;;7.20;71.40;;;;;;4888608;29;20360;-62
2021/04/05 09:28:58;;;;;;;16.58;6.75;;;7.20;71.60;;;;;;4907669;29;20064;-62
2021/04/05 09:31:48;;;;;;;20.73;6.72;;;7.20;71.80;;;;;;4907791;29;20424;-62
2021/04/05 09:34:53;;;;;;;11.30;5.47;;;7.20;71.70;;;;;;4907385;29;20060;-62
2021/04/05 09:37:56;;;;;;;13.57;6.03;;;7.30;71.60;;;;;;4906918;29;20085;-61
2021/04/05 09:40:42;;;;;;;20.63;7.78;;;7.30;71.80;;;;;;4907131;29;20272;-62
2021/04/05 09:43:50;;;;;;;20.85;6.85;;;7.30;71.70;;;;;;4905068;29;20168;-62
2021/04/05 09:46:51;;;;;;;11.73;5.53;;;7.30;71.60;;;;;;4905346;29;20059;-61
2021/04/05 09:49:27;;;;;;;15.43;5.93;;;7.40;71.40;;;;;;4895113;29;20366;-61
2021/04/05 09:52:13;;;;;;;21.08;6.38;;;7.40;71.70;;;;;;4906546;29;20060;-61
2021/04/05 09:54:48;;;;;;;19.15;6.93;;;7.50;71.50;;;;;;4904770;29;21355;-62
2021/04/05 09:57:23;;;;;;;18.33;7.57;;;7.60;71.40;;;;;;4905166;29;20080;-62
2021/04/05 09:59:54;;;;;;;19.15;7.38;;;7.60;71.20;;;;;;4905378;29;20108;-62
2021/04/05 10:02:31;;;;;;;18.75;5.97;;;7.60;70.90;;;;;;4901416;29;20382;-61
2021/04/05 10:05:00;;;;;;;16.08;5.70;;;7.60;70.90;;;;;;4905478;29;20060;-62
2021/04/05 10:07:31;;;;;;;22.77;6.53;;;7.70;71.20;;;;;;4905529;29;20054;-62
2021/04/05 10:10:03;;;;;;;22.40;7.03;;;7.70;71.10;;;;;;4905887;29;20305;-62
2021/04/05 10:12:30;;;;;;;17.33;6.65;;;7.70;71.30;;;;;;4905367;29;20045;-62
2021/04/05 10:14:59;;;;;;;20.10;7.05;;;7.70;71.50;;;;;;4922362;29;20061;-62
2021/04/05 10:17:28;;;;;;;18.08;5.72;;;7.80;72.10;;;;;;4907067;29;20305;-62
2021/04/05 10:19:56;;;;;;;17.40;7.32;;;7.90;72.70;;;;;;4909684;29;20124;-62
2021/04/05 10:22:23;;;;;;;18.08;7.18;;;7.70;72.50;;;;;;4908977;29;20059;-62
2021/04/05 10:24:56;;;;;;;14.13;7.47;;;7.60;74.60;;;;;;4910012;29;20057;-63
2021/04/05 10:27:27;;;;;;;23.73;8.20;;;7.40;75.70;;;;;;4907208;29;20336;-61
2021/04/05 10:29:56;;;;;;;18.00;6.47;;;7.40;75.80;;;;;;4910269;29;20072;-62
2021/04/05 10:32:26;;;;;;;15.52;6.82;;;7.40;76.60;;;;;;4911313;29;20044;-61
2021/04/05 10:34:56;;;;;;;14.23;6.90;;;7.40;77.00;;;;;;4910802;29;20056;-63
2021/04/05 10:37:26;;;;;;;15.70;6.45;;;7.30;78.50;;;;;;4911396;29;20075;-61
2021/04/05 10:39:55;;;;;;;16.88;6.10;;;7.30;78.30;;;;;;4910564;29;20049;-62
2021/04/05 10:42:26;;;;;;;19.67;6.70;;;7.20;79.50;;;;;;4910192;29;20053;-62
2021/04/05 10:44:58;;;;;;;19.27;6.75;;;7.00;80.90;;;;;;4925432;29;20336;-62
2021/04/05 10:47:31;;;;;;;19.73;7.30;;;6.80;83.00;;;;;;4910291;29;20356;-62
2021/04/05 10:50:00;;;;;;;16.80;7.97;;;6.50;87.80;;;;;;4909389;29;20408;-62
2021/04/05 10:52:39;;;;;;;19.63;6.30;;;6.30;88.60;;;;;;4910914;29;20044;-62
2021/04/05 10:55:17;;;;;;;17.73;6.80;;;6.20;89.00;;;;;;4909531;29;20088;-63
2021/04/05 10:57:46;;;;;;;18.25;7.00;;;6.10;91.30;;;;;;4910698;29;20053;-61
2021/04/05 11:00:18;;;;;;;19.30;7.53;;;6.00;93.20;;;;;;4906757;29;20111;-62
2021/04/05 11:02:54;;;;;;;13.95;6.47;;;5.90;94.00;;;;;;4910176;29;20160;-63
2021/04/05 11:05:24;;;;;;;22.45;6.45;;;5.90;93.00;;;;;;4908445;29;20108;-62
2021/04/05 11:07:56;;;;;;;18.05;7.68;;;5.90;94.00;;;;;;4909756;29;20059;-62
2021/04/05 11:10:27;;;;;;;19.52;7.90;;;5.90;94.90;;;;;;4908491;29;20663;-61
2021/04/05 11:12:58;;;;;;;13.63;6.00;;;5.90;94.40;;;;;;4909452;29;20044;-62
2021/04/05 11:15:27;;;;;;;17.77;6.30;;;5.90;94.90;;;;;;4908470;29;20417;-62
2021/04/05 11:17:57;;;;;;;15.25;7.22;;;5.90;94.90;;;;;;4909819;29;20060;-62
2021/04/05 11:20:30;;;;;;;21.67;7.45;;;5.80;94.00;;;;;;4908946;29;20631;-64
2021/04/05 11:23:09;;;;;;;17.08;7.97;;;5.70;94.50;;;;;;4909298;29;20403;-62
2021/04/05 11:25:39;;;;;;;17.13;7.85;;;5.80;95.40;;;;;;4907818;29;20535;-63
2021/04/05 11:28:13;;;;;;;15.20;7.18;;;5.80;94.50;;;;;;4908977;29;20280;-62
2021/04/05 11:30:41;;;;;;;17.40;6.80;;;5.80;93.70;;;;;;4907880;29;20336;-62
2021/04/05 11:33:11;;;;;;;17.27;7.82;;;5.80;94.30;;;;;;4908132;29;20300;-62
2021/04/05 11:35:40;;;;;;;16.90;6.93;;;5.90;94.20;;;;;;4907441;29;20254;-62
2021/04/05 11:38:12;;;;;;;20.23;6.82;;;5.80;94.00;;;;;;4907234;29;20071;-62
2021/04/05 11:40:41;;;;;;;18.67;6.47;;;5.80;93.80;;;;;;4907790;29;20340;-62
2021/04/05 11:43:15;;;;;;;13.07;6.70;;;5.80;94.40;;;;;;4916577;29;20064;-61
2021/04/05 11:45:45;;;;;;;17.67;7.28;;;5.80;93.60;;;;;;4907785;29;20079;-62
2021/04/05 11:48:17;;;;;;;16.67;7.95;;;5.80;93.70;;;;;;4906921;29;20055;-62
2021/04/05 11:50:45;;;;;;;13.80;6.78;;;5.90;93.60;;;;;;4908146;29;20353;-62
2021/04/05 11:53:22;;;;;;;13.57;7.05;;;5.90;93.10;;;;;;4908102;29;20052;-61
2021/04/05 11:55:59;;;;;;;15.52;6.63;;;6.00;93.00;;;;;;4907317;29;20371;-63
2021/04/05 11:58:30;;;;;;;20.83;7.15;;;6.00;93.10;;;;;;4907681;29;20423;-62
2021/04/05 12:01:01;;;;;;;15.95;6.80;;;6.10;93.10;;;;;;4905798;29;20292;-62
2021/04/05 12:03:51;;;;;;;12.75;6.00;;;6.10;93.20;;;;;;4906505;29;20353;-62
2021/04/05 12:06:22;;;;;;;15.45;5.82;;;6.20;93.60;;;;;;4907137;29;20060;-65
2021/04/05 12:08:56;;;;;;;10.73;5.35;;;6.20;93.50;;;;;;4900800;29;20052;-62
2021/04/05 12:11:27;;;;;;;15.13;5.88;;;6.20;93.00;;;;;;4906470;29;21123;-63
2021/04/05 12:13:59;;;;;;;16.35;6.07;;;6.30;93.10;;;;;;4907606;29;20097;-62
2021/04/05 12:16:30;;;;;;;11.25;5.53;;;6.40;92.80;;;;;;4906256;29;20309;-63
2021/04/05 12:18:58;;;;;;;12.02;5.25;;;6.30;91.50;;;;;;4922359;29;20075;-62
2021/04/05 12:21:27;;;;;;;5.20;2.53;;;6.30;93.10;;;;;;4908083;29;20405;-62
2021/04/05 12:23:56;;;;;;;3.20;0.80;;;6.30;92.80;;;;;;4907839;29;20052;-63
2021/04/05 12:26:28;;;;;;;1.63;0.40;;;5.80;86.80;;;;;;4908784;29;20052;-61
2021/04/05 12:29:35;;;;;;;1.48;0.47;;;5.00;88.10;;;;;;4905850;29;20049;-62
2021/04/05 12:32:05;;;;;;;0.22;0.22;;;4.40;88.80;;;;;;4900918;29;20411;-62
2021/04/05 12:34:35;;;;;;;0.83;0.40;;;4.00;89.60;;;;;;4907181;29;20081;-62
2021/04/05 12:37:16;;;;;;;0.63;0.30;;;3.80;89.50;;;;;;4900678;29;20068;-62
2021/04/05 12:39:45;;;;;;;2.83;0.63;;;3.80;90.20;;;;;;4923221;29;20053;-63
2021/04/05 12:42:14;;;;;;;2.15;0.35;;;3.80;90.40;;;;;;4923257;29;20057;-63
2021/04/05 12:44:45;;;;;;;0.57;0.20;;;3.90;90.60;;;;;;4907964;29;20087;-63
2021/04/05 12:47:14;;;;;;;1.05;0.40;;;4.10;90.60;;;;;;4907881;29;20080;-63
2021/04/05 12:49:44;;;;;;;0.65;0.30;;;4.20;91.10;;;;;;4906044;29;20108;-62
2021/04/05 12:52:15;;;;;;;0.93;0.45;;;4.30;90.80;;;;;;4906621;29;20288;-61
2021/04/05 12:54:45;;;;;;;0.57;0.20;;;4.30;90.00;;;;;;4907682;29;20044;-61
2021/04/05 12:57:15;;;;;;;;;;;4.50;90.40;;;;;;4908381;29;20052;-62
2021/04/05 12:59:44;;;;;;;1.10;0.35;;;4.60;90.10;;;;;;4906120;29;19938;-62
2021/04/05 13:02:18;;;;;;;1.00;0.35;;;4.80;90.10;;;;;;4910402;29;20079;-62
2021/04/05 13:04:52;;;;;;;0.82;0.22;;;5.00;89.90;;;;;;4897486;29;20056;-61
2021/04/05 13:07:25;;;;;;;0.45;0.17;;;5.00;88.60;;;;;;4907020;29;20068;-62
2021/04/05 13:09:56;;;;;;;1.63;0.40;;;5.10;87.70;;;;;;4907824;29;20048;-62
2021/04/05 13:12:27;;;;;;;0.30;0.20;;;5.20;86.00;;;;;;4906778;29;20363;-62
2021/04/05 13:15:03;;;;;;;0.32;0.20;;;5.20;86.00;;;;;;4909057;29;20067;-61
2021/04/05 13:17:36;;;;;;;2.45;0.20;;;5.10;84.00;;;;;;4906863;29;20574;-61
2021/04/05 13:20:19;;;;;;;0.47;0.20;;;5.00;85.00;;;;;;4899388;29;20331;-62
2021/04/05 13:22:55;;;;;;;0.63;0.20;;;5.10;85.20;;;;;;4907319;29;20154;-62